YBRM

Details ICAO YBRM (BME)
Name Broome Intl
Region Australia
Timezone Australia/Perth (UTC+8.0)
Plans Departing 172
Arriving 184
Stats Elevation 56 ft / 17 m (AMSL)
Location -17.948700° 122.227000°
Runways 1
Magnetic Variation 1.715° E
Sunrise 2019-01-22 21:33:38 UTC / 2019-01-23 05:33:38 Local
Sunset 2019-01-23 10:34:06 UTC / 2019-01-23 18:34:06 Local
Advertisement - Login to hide

Runways

ID Width Length Bearing (true/mag) Surface Threshold Overrun Markings Lighting
10 148 ft / 45 m 8,325 ft / 2,537 m 105.60° / 103.89° ASPHALT 292 ft / 89 m 52 ft / 16 m APP EDGE THRESHOLD
28 148 ft / 45 m 8,325 ft / 2,537 m 285.60° / 283.88° ASPHALT 666 ft / 203 m 0 ft / 0 m APP EDGE THRESHOLD

Map

Weather


0- 5 10 15 20 25 30 35+ Temperature / °C

Clouds and Precipitation
Forecast for 2019-01-23 06:00 UTC. Updated 3 hours ago

Ground ~20,000 ft ~40,000 ft Winds

METAR

YBRM 230616Z 27008KT 9999 VCSH FEW018 SCT050CB BKN300 28/27 Q1001

TAF

TAF YBRM 230509Z 2306/2406 28008KT CAVOK FM231600 09010KT 9999 -SHRA BKN020 PROB30 INTER 2306/2406 VRB25G45KT 1000 TSRA BKN010 FEW030CB

Frequencies

Recorded 126.55 MHz YBRM ATIS
Unicom 123.90 MHz BRISBANE CENTRE MULT
Unicom 119.60 MHz ACTIVATE LIGHTS ONLY MULT
Unicom 126.00 MHz BROOME RADIO MULT
Warning: Do not use this data for real-world aviation or navigation. No guarantee of current accuracy is given.